• Join FlightAware (Why Join?)
  • Login
  • US Flag 
04:51AM EDT


 

Airport Tracker/Info


-or-


 

Live Flight TrackerFlight Track Log ✈ CTL18 ✈ 09-May-2013 ✈ KMBS - KYIP

Flight Track Log - Related Links

Times and Time Zones

All times are in EDT time to prevent confusion due to time zone crossing. See the CTL18 flight status page for this flight to view local times or setup timezone preferences in your user account.

Time Position Orientation Groundspeed Altitude Reporting Facility
EDT Latitude Longitude Course Direction KTS MPH feet Rate Location/Type
07:46PM 43.3904 -84.0180 160° South  Level Estimated
07:47PM 43.3637 -83.9994 153° Southeast  Level FlightAware Approximate
07:48PM 43.3371 -83.9809 153° Southeast  Level FlightAware Approximate
07:49PM 43.3085 -83.9689 160° South  Level Estimated
07:50PM 43.2809 -83.9532 157° South  Level FlightAware Approximate
07:51PM 43.2533 -83.9375 157° South  Level FlightAware Approximate
07:52PM 43.2246 -83.9258 163° South  Level Estimated
07:53PM 43.1964 -83.9124 161° South  Level FlightAware Approximate
07:53PM 42.9922 -83.8136 160° South 164 189 5,000  Level Cleveland Center
07:54PM 43.1682 -83.8990 161° South  Level FlightAware Approximate
07:55PM 43.1399 -83.8856 161° South  Level FlightAware Approximate
07:55PM 42.9428 -83.7911 162° South 164 189 5,000  Level Cleveland Center
07:56PM 43.1113 -83.8741 160° South  Level Estimated
07:56PM 42.8956 -83.7689 161° South 165 190 5,000  Level Cleveland Center
07:57PM 43.0832 -83.8599 160° South  Level FlightAware Approximate
07:57PM 42.8544 -83.7439 156° South 165 190 5,000  Level Cleveland Center
07:58PM 43.0552 -83.8456 160° South  Level FlightAware Approximate
07:58PM 42.8111 -83.7306 167° South 162 186 5,100  Level Cleveland Center
07:59PM 43.0272 -83.8314 160° South  Level FlightAware Approximate
07:59PM 42.7636 -83.7139 166° South 163 188 5,000  Level Cleveland Center
08:00PM 42.7142 -83.6944 164° South 166 191 5,000  Level Cleveland Center
08:01PM 42.6750 -83.6783 163° South 163 188 5,000  Level Cleveland Center
08:02PM 42.6317 -83.6650 167° South 165 190 5,000  Level Cleveland Center
08:03PM 42.5819 -83.6486 166° South 163 188 5,100 -120 Climbing Cleveland Center
08:04PM 42.5364 -83.6322 165° South 169 194 4,800 -780 Descending Cleveland Center
08:05PM 42.4869 -83.6158 166° South 194 223 3,700 -840 Descending Cleveland Center
08:06PM 42.4394 -83.5967 163° South 174 200 3,100 -420 Descending Cleveland Center
08:07PM 42.4003 -83.5806 163° South 158 182 2,900 -240 Descending Cleveland Center
08:08PM 42.3489 -83.5558 160° South 156 180 2,700 -300 Descending Cleveland Center
08:09PM 42.3139 -83.5400 162° South 160 184 2,400 -480 Descending Cleveland Center
08:10PM 42.2725 -83.5211 161° South 125 144 1,800 -540 Descending Cleveland Center
08:12PM 42.2333 -83.5167 160° South  Level FlightAware Approximate
08:19PM 42.2393 -83.5310 160° South  Level Estimated
08:20PM 42.2393 -83.5310 160° South  Level Estimated